Briefing drone pour La charite-sur-loire

Rechercher une autre localisation

Conditions de vol :


Nous sommes le : Lundi 08 mars 2021
Il est 22:17 UTC (23:17 LT)

Lever de soleil : 05:47 UTC (06:47 LT)
Coucher de soleil : 18:09 UTC (19:09 LT)

Météo

L'essentiel des conditions de vol

VIGILANCE MÉTÉO FRANCE - Nièvre (58)
Pas de vigilances particulieres
METAR de LFQG
LFQG 081800Z AUTO 33006KT CAVOK 05/M02 Q1019

Date d'émission: 08/03/2021
Heure d'émission: 18:00 UTC
Vent: 330° pour 6 KT (11 km/h)
Visibilité horizontale: > 10 km
Plafond : Plafond et visibilité OK (CAVOK)
Température: 5 °C
Point de rosée: -2 °C
Humidité: 61%
Pression (QNH): 1019 hPa
Prévision 24h pour Nevers (15 km)
Vent : 5° pour 2 KT (7 km/h)
Temperature Maxi: 4 °C
Temperature Min: 4 °C
Humidité : 83%
Condition : Partiellement nuageux


WEBCAM POUR LA CHARITE-SUR-LOIRE

Réglementation

Voler en sécurité

CARTES AERONAUTIQUE 1/500.000
CARTES VAC (LFQG)
SUP AIP




Chargement des AIP...
NOTAM (LA CHARITE-SUR-LOIRE + Terrain à proximité / FIR )




Chargement des NOTAMS...
CONTACT PREFECTURE 58


Avertissement : Les données mises à disposition sont indicatives. Oxygène Drone ne pourra être tenu responsable de dégâts causés aux biens et aux personnes.